sensor_id;sensor_type;location;lat;lon;timestamp;P1;durP1;ratioP1;P2;durP2;ratioP2
68995;SDS011;56056;48.990;12.146;2023-02-11T00:00:38;63.33;;;58.10;;
68995;SDS011;56056;48.990;12.146;2023-02-11T00:03:04;184.80;;;171.10;;
68995;SDS011;56056;48.990;12.146;2023-02-11T00:05:30;183.17;;;167.30;;
68995;SDS011;56056;48.990;12.146;2023-02-11T00:07:55;136.07;;;124.50;;
68995;SDS011;56056;48.990;12.146;2023-02-11T00:10:21;139.20;;;128.97;;
68995;SDS011;56056;48.990;12.146;2023-02-11T00:12:47;147.40;;;135.67;;
68995;SDS011;56056;48.990;12.146;2023-02-11T00:15:14;76.40;;;71.43;;
68995;SDS011;56056;48.990;12.146;2023-02-11T00:17:39;86.47;;;80.87;;
68995;SDS011;56056;48.990;12.146;2023-02-11T00:20:05;190.67;;;174.00;;
68995;SDS011;56056;48.990;12.146;2023-02-11T00:22:31;72.77;;;67.63;;
68995;SDS011;56056;48.990;12.146;2023-02-11T00:24:57;77.77;;;71.50;;
68995;SDS011;56056;48.990;12.146;2023-02-11T00:27:23;74.07;;;67.13;;
68995;SDS011;56056;48.990;12.146;2023-02-11T00:29:48;165.90;;;153.10;;
68995;SDS011;56056;48.990;12.146;2023-02-11T00:32:15;175.33;;;160.03;;
68995;SDS011;56056;48.990;12.146;2023-02-11T00:34:41;181.47;;;166.87;;
68995;SDS011;56056;48.990;12.146;2023-02-11T00:37:07;84.37;;;76.97;;
68995;SDS011;56056;48.990;12.146;2023-02-11T00:39:32;143.77;;;132.23;;
68995;SDS011;56056;48.990;12.146;2023-02-11T00:41:58;151.57;;;140.70;;
68995;SDS011;56056;48.990;12.146;2023-02-11T00:44:24;67.53;;;61.20;;
68995;SDS011;56056;48.990;12.146;2023-02-11T00:46:50;77.70;;;71.47;;
68995;SDS011;56056;48.990;12.146;2023-02-11T00:49:17;158.93;;;146.70;;
68995;SDS011;56056;48.990;12.146;2023-02-11T00:51:43;175.23;;;160.73;;
68995;SDS011;56056;48.990;12.146;2023-02-11T00:54:08;159.67;;;145.87;;
68995;SDS011;56056;48.990;12.146;2023-02-11T00:56:34;170.87;;;157.80;;
68995;SDS011;56056;48.990;12.146;2023-02-11T00:59:00;225.60;;;209.17;;
68995;SDS011;56056;48.990;12.146;2023-02-11T01:01:25;105.20;;;96.97;;
68995;SDS011;56056;48.990;12.146;2023-02-11T01:03:51;83.63;;;77.73;;
68995;SDS011;56056;48.990;12.146;2023-02-11T01:06:18;115.63;;;107.50;;
68995;SDS011;56056;48.990;12.146;2023-02-11T01:08:44;218.70;;;200.37;;
68995;SDS011;56056;48.990;12.146;2023-02-11T01:11:12;67.33;;;61.63;;
68995;SDS011;56056;48.990;12.146;2023-02-11T01:13:39;217.77;;;202.37;;
68995;SDS011;56056;48.990;12.146;2023-02-11T01:16:06;88.77;;;81.13;;
68995;SDS011;56056;48.990;12.146;2023-02-11T01:18:31;187.43;;;174.37;;
68995;SDS011;56056;48.990;12.146;2023-02-11T01:20:57;118.13;;;110.37;;
68995;SDS011;56056;48.990;12.146;2023-02-11T01:23:24;84.80;;;79.67;;
68995;SDS011;56056;48.990;12.146;2023-02-11T01:25:50;89.27;;;83.60;;
68995;SDS011;56056;48.990;12.146;2023-02-11T01:28:17;153.83;;;142.30;;
68995;SDS011;56056;48.990;12.146;2023-02-11T01:30:43;115.63;;;107.67;;
68995;SDS011;56056;48.990;12.146;2023-02-11T01:33:08;158.30;;;146.87;;
68995;SDS011;56056;48.990;12.146;2023-02-11T01:35:34;254.07;;;235.83;;
68995;SDS011;56056;48.990;12.146;2023-02-11T01:38:01;221.53;;;203.50;;
68995;SDS011;56056;48.990;12.146;2023-02-11T01:40:28;242.17;;;223.37;;
68995;SDS011;56056;48.990;12.146;2023-02-11T01:42:54;206.73;;;191.50;;
68995;SDS011;56056;48.990;12.146;2023-02-11T01:48:19;278.53;;;260.67;;
68995;SDS011;56056;48.990;12.146;2023-02-11T01:50:49;124.17;;;115.63;;
68995;SDS011;56056;48.990;12.146;2023-02-11T01:53:16;275.23;;;256.27;;
68995;SDS011;56056;48.990;12.146;2023-02-11T01:56:02;249.37;;;230.60;;
68995;SDS011;56056;48.990;12.146;2023-02-11T01:58:47;355.80;;;328.67;;
68995;SDS011;56056;48.990;12.146;2023-02-11T02:01:15;209.80;;;196.77;;
68995;SDS011;56056;48.990;12.146;2023-02-11T02:03:43;228.10;;;212.73;;
68995;SDS011;56056;48.990;12.146;2023-02-11T02:06:11;168.00;;;154.87;;
68995;SDS011;56056;48.990;12.146;2023-02-11T02:08:41;341.30;;;316.13;;
68995;SDS011;56056;48.990;12.146;2023-02-11T02:11:11;241.37;;;226.00;;
68995;SDS011;56056;48.990;12.146;2023-02-11T02:13:37;265.13;;;247.57;;
68995;SDS011;56056;48.990;12.146;2023-02-11T02:16:03;231.80;;;212.53;;
68995;SDS011;56056;48.990;12.146;2023-02-11T02:18:33;365.20;;;340.63;;
68995;SDS011;56056;48.990;12.146;2023-02-11T02:21:11;221.87;;;207.63;;
68995;SDS011;56056;48.990;12.146;2023-02-11T02:27:05;486.83;;;452.63;;
68995;SDS011;56056;48.990;12.146;2023-02-11T02:30:14;522.00;;;483.77;;
68995;SDS011;56056;48.990;12.146;2023-02-11T02:35:45;632.93;;;588.90;;
68995;SDS011;56056;48.990;12.146;2023-02-11T02:38:13;499.73;;;466.27;;
68995;SDS011;56056;48.990;12.146;2023-02-11T02:40:44;324.60;;;300.43;;
68995;SDS011;56056;48.990;12.146;2023-02-11T02:43:11;512.73;;;478.60;;
68995;SDS011;56056;48.990;12.146;2023-02-11T02:45:38;488.00;;;452.17;;
68995;SDS011;56056;48.990;12.146;2023-02-11T02:48:03;504.47;;;469.10;;
68995;SDS011;56056;48.990;12.146;2023-02-11T02:50:32;416.53;;;387.47;;
68995;SDS011;56056;48.990;12.146;2023-02-11T02:53:03;454.43;;;420.00;;
68995;SDS011;56056;48.990;12.146;2023-02-11T02:55:40;438.00;;;407.93;;
68995;SDS011;56056;48.990;12.146;2023-02-11T02:58:23;444.17;;;414.17;;
68995;SDS011;56056;48.990;12.146;2023-02-11T03:01:09;571.40;;;534.43;;
68995;SDS011;56056;48.990;12.146;2023-02-11T03:03:40;393.53;;;366.67;;
68995;SDS011;56056;48.990;12.146;2023-02-11T03:06:12;417.07;;;389.17;;
68995;SDS011;56056;48.990;12.146;2023-02-11T03:08:41;417.70;;;386.50;;
68995;SDS011;56056;48.990;12.146;2023-02-11T03:11:10;370.17;;;342.67;;
68995;SDS011;56056;48.990;12.146;2023-02-11T03:13:36;284.87;;;266.93;;
68995;SDS011;56056;48.990;12.146;2023-02-11T03:16:06;395.57;;;366.83;;
68995;SDS011;56056;48.990;12.146;2023-02-11T03:18:34;273.63;;;256.67;;
68995;SDS011;56056;48.990;12.146;2023-02-11T03:21:00;197.17;;;184.10;;
68995;SDS011;56056;48.990;12.146;2023-02-11T03:23:29;323.70;;;300.97;;
68995;SDS011;56056;48.990;12.146;2023-02-11T03:25:57;325.93;;;297.07;;
68995;SDS011;56056;48.990;12.146;2023-02-11T03:28:27;523.73;;;469.63;;
68995;SDS011;56056;48.990;12.146;2023-02-11T03:30:56;217.90;;;202.13;;
68995;SDS011;56056;48.990;12.146;2023-02-11T03:33:29;257.10;;;240.57;;
68995;SDS011;56056;48.990;12.146;2023-02-11T03:35:59;429.13;;;398.43;;
68995;SDS011;56056;48.990;12.146;2023-02-11T03:38:30;300.90;;;280.57;;
68995;SDS011;56056;48.990;12.146;2023-02-11T03:40:58;263.07;;;244.37;;
68995;SDS011;56056;48.990;12.146;2023-02-11T03:43:27;166.50;;;153.97;;
68995;SDS011;56056;48.990;12.146;2023-02-11T03:45:56;292.47;;;272.87;;
68995;SDS011;56056;48.990;12.146;2023-02-11T03:48:24;187.43;;;174.97;;
68995;SDS011;56056;48.990;12.146;2023-02-11T03:50:51;199.07;;;185.30;;
68995;SDS011;56056;48.990;12.146;2023-02-11T03:53:18;149.80;;;138.27;;
68995;SDS011;56056;48.990;12.146;2023-02-11T03:55:46;84.23;;;77.50;;
68995;SDS011;56056;48.990;12.146;2023-02-11T03:58:14;152.13;;;142.53;;
68995;SDS011;56056;48.990;12.146;2023-02-11T04:00:40;161.57;;;150.23;;
68995;SDS011;56056;48.990;12.146;2023-02-11T04:03:07;98.73;;;92.60;;
68995;SDS011;56056;48.990;12.146;2023-02-11T04:05:33;161.40;;;144.57;;
68995;SDS011;56056;48.990;12.146;2023-02-11T04:07:59;113.30;;;105.27;;
68995;SDS011;56056;48.990;12.146;2023-02-11T04:10:25;125.80;;;117.63;;
68995;SDS011;56056;48.990;12.146;2023-02-11T04:12:52;233.27;;;214.57;;
68995;SDS011;56056;48.990;12.146;2023-02-11T04:15:18;123.00;;;114.27;;
68995;SDS011;56056;48.990;12.146;2023-02-11T04:17:43;114.33;;;107.03;;
68995;SDS011;56056;48.990;12.146;2023-02-11T04:20:10;219.57;;;205.17;;
68995;SDS011;56056;48.990;12.146;2023-02-11T04:22:35;166.63;;;153.83;;
68995;SDS011;56056;48.990;12.146;2023-02-11T04:25:02;144.73;;;131.97;;
68995;SDS011;56056;48.990;12.146;2023-02-11T04:27:28;178.80;;;162.40;;
68995;SDS011;56056;48.990;12.146;2023-02-11T04:29:55;23.37;;;20.97;;
68995;SDS011;56056;48.990;12.146;2023-02-11T04:32:20;105.87;;;90.63;;
68995;SDS011;56056;48.990;12.146;2023-02-11T04:34:46;73.47;;;67.70;;
68995;SDS011;56056;48.990;12.146;2023-02-11T04:37:12;367.43;;;329.97;;
68995;SDS011;56056;48.990;12.146;2023-02-11T04:39:38;127.70;;;118.37;;
68995;SDS011;56056;48.990;12.146;2023-02-11T04:42:03;102.17;;;93.77;;
68995;SDS011;56056;48.990;12.146;2023-02-11T04:44:29;100.63;;;93.43;;
68995;SDS011;56056;48.990;12.146;2023-02-11T04:46:57;102.23;;;94.90;;
68995;SDS011;56056;48.990;12.146;2023-02-11T04:49:22;65.60;;;60.83;;
68995;SDS011;56056;48.990;12.146;2023-02-11T04:51:48;88.27;;;79.63;;
68995;SDS011;56056;48.990;12.146;2023-02-11T04:54:14;233.30;;;214.33;;
68995;SDS011;56056;48.990;12.146;2023-02-11T04:56:40;51.37;;;48.00;;
68995;SDS011;56056;48.990;12.146;2023-02-11T04:59:06;175.10;;;161.87;;
68995;SDS011;56056;48.990;12.146;2023-02-11T05:01:31;218.37;;;199.70;;
68995;SDS011;56056;48.990;12.146;2023-02-11T05:03:58;219.43;;;202.80;;
68995;SDS011;56056;48.990;12.146;2023-02-11T05:06:24;185.23;;;172.40;;
68995;SDS011;56056;48.990;12.146;2023-02-11T05:08:50;110.40;;;102.77;;
68995;SDS011;56056;48.990;12.146;2023-02-11T05:11:17;98.87;;;92.43;;
68995;SDS011;56056;48.990;12.146;2023-02-11T05:13:44;288.13;;;266.07;;
68995;SDS011;56056;48.990;12.146;2023-02-11T05:16:09;113.63;;;106.83;;
68995;SDS011;56056;48.990;12.146;2023-02-11T05:18:36;277.70;;;255.97;;
68995;SDS011;56056;48.990;12.146;2023-02-11T05:21:05;123.87;;;116.63;;
68995;SDS011;56056;48.990;12.146;2023-02-11T05:23:32;182.57;;;169.23;;
68995;SDS011;56056;48.990;12.146;2023-02-11T05:25:58;150.20;;;138.47;;
68995;SDS011;56056;48.990;12.146;2023-02-11T05:28:24;31.50;;;28.13;;
68995;SDS011;56056;48.990;12.146;2023-02-11T05:30:49;151.70;;;140.50;;
68995;SDS011;56056;48.990;12.146;2023-02-11T05:33:15;117.87;;;107.33;;
68995;SDS011;56056;48.990;12.146;2023-02-11T05:35:41;287.50;;;203.17;;
68995;SDS011;56056;48.990;12.146;2023-02-11T05:38:08;255.87;;;236.63;;
68995;SDS011;56056;48.990;12.146;2023-02-11T05:40:33;340.10;;;238.23;;
68995;SDS011;56056;48.990;12.146;2023-02-11T05:42:59;315.17;;;117.73;;
68995;SDS011;56056;48.990;12.146;2023-02-11T05:45:25;111.83;;;103.73;;
68995;SDS011;56056;48.990;12.146;2023-02-11T05:47:50;430.03;;;198.53;;
68995;SDS011;56056;48.990;12.146;2023-02-11T05:50:16;289.37;;;240.07;;
68995;SDS011;56056;48.990;12.146;2023-02-11T05:52:42;256.00;;;152.90;;
68995;SDS011;56056;48.990;12.146;2023-02-11T05:55:09;172.83;;;161.30;;
68995;SDS011;56056;48.990;12.146;2023-02-11T05:57:35;265.73;;;241.83;;
68995;SDS011;56056;48.990;12.146;2023-02-11T06:00:00;288.67;;;131.70;;
68995;SDS011;56056;48.990;12.146;2023-02-11T06:02:26;205.37;;;188.90;;
68995;SDS011;56056;48.990;12.146;2023-02-11T06:04:52;199.37;;;181.63;;
68995;SDS011;56056;48.990;12.146;2023-02-11T06:07:18;324.80;;;296.43;;
68995;SDS011;56056;48.990;12.146;2023-02-11T06:09:43;224.07;;;202.67;;
68995;SDS011;56056;48.990;12.146;2023-02-11T06:12:10;332.67;;;306.30;;
68995;SDS011;56056;48.990;12.146;2023-02-11T06:14:36;69.47;;;64.37;;
68995;SDS011;56056;48.990;12.146;2023-02-11T06:17:02;88.10;;;79.03;;
68995;SDS011;56056;48.990;12.146;2023-02-11T06:19:28;110.37;;;103.60;;
68995;SDS011;56056;48.990;12.146;2023-02-11T06:21:55;84.87;;;79.17;;
68995;SDS011;56056;48.990;12.146;2023-02-11T06:24:21;137.53;;;126.23;;
68995;SDS011;56056;48.990;12.146;2023-02-11T06:26:47;609.97;;;262.30;;
68995;SDS011;56056;48.990;12.146;2023-02-11T06:29:14;94.47;;;87.27;;
68995;SDS011;56056;48.990;12.146;2023-02-11T06:31:39;723.53;;;304.30;;
68995;SDS011;56056;48.990;12.146;2023-02-11T06:34:05;102.17;;;95.00;;
68995;SDS011;56056;48.990;12.146;2023-02-11T06:36:31;144.27;;;135.27;;
68995;SDS011;56056;48.990;12.146;2023-02-11T06:38:57;659.60;;;600.70;;
68995;SDS011;56056;48.990;12.146;2023-02-11T06:41:22;230.13;;;213.80;;
68995;SDS011;56056;48.990;12.146;2023-02-11T06:43:48;122.63;;;114.87;;
68995;SDS011;56056;48.990;12.146;2023-02-11T06:46:15;107.83;;;99.80;;
68995;SDS011;56056;48.990;12.146;2023-02-11T06:48:41;119.73;;;109.90;;
68995;SDS011;56056;48.990;12.146;2023-02-11T06:51:07;86.13;;;79.80;;
68995;SDS011;56056;48.990;12.146;2023-02-11T06:53:34;165.77;;;153.47;;
68995;SDS011;56056;48.990;12.146;2023-02-11T06:56:01;157.50;;;145.40;;
68995;SDS011;56056;48.990;12.146;2023-02-11T06:58:27;170.73;;;158.20;;
68995;SDS011;56056;48.990;12.146;2023-02-11T07:00:53;109.63;;;100.63;;
68995;SDS011;56056;48.990;12.146;2023-02-11T07:03:20;63.73;;;59.53;;
68995;SDS011;56056;48.990;12.146;2023-02-11T07:05:45;57.17;;;52.63;;
68995;SDS011;56056;48.990;12.146;2023-02-11T07:08:11;196.20;;;175.23;;
68995;SDS011;56056;48.990;12.146;2023-02-11T07:10:36;348.67;;;176.77;;
68995;SDS011;56056;48.990;12.146;2023-02-11T07:13:02;202.77;;;137.10;;
68995;SDS011;56056;48.990;12.146;2023-02-11T07:15:28;523.33;;;458.33;;
68995;SDS011;56056;48.990;12.146;2023-02-11T07:17:53;656.43;;;561.30;;
68995;SDS011;56056;48.990;12.146;2023-02-11T07:20:20;146.63;;;131.80;;
68995;SDS011;56056;48.990;12.146;2023-02-11T07:22:46;504.00;;;297.00;;
68995;SDS011;56056;48.990;12.146;2023-02-11T07:25:12;376.90;;;247.00;;
68995;SDS011;56056;48.990;12.146;2023-02-11T07:27:37;26.80;;;22.23;;
68995;SDS011;56056;48.990;12.146;2023-02-11T07:30:03;314.33;;;279.80;;
68995;SDS011;56056;48.990;12.146;2023-02-11T07:32:29;46.83;;;42.77;;
68995;SDS011;56056;48.990;12.146;2023-02-11T07:34:55;68.43;;;56.23;;
68995;SDS011;56056;48.990;12.146;2023-02-11T07:37:22;41.17;;;37.43;;
68995;SDS011;56056;48.990;12.146;2023-02-11T07:39:48;17.27;;;15.53;;
68995;SDS011;56056;48.990;12.146;2023-02-11T07:42:14;27.17;;;18.33;;
68995;SDS011;56056;48.990;12.146;2023-02-11T07:44:39;61.47;;;56.97;;
68995;SDS011;56056;48.990;12.146;2023-02-11T07:47:05;20.20;;;18.10;;
68995;SDS011;56056;48.990;12.146;2023-02-11T07:49:31;27.40;;;24.97;;
68995;SDS011;56056;48.990;12.146;2023-02-11T07:51:56;21.57;;;19.27;;
68995;SDS011;56056;48.990;12.146;2023-02-11T07:54:23;20.00;;;14.47;;
68995;SDS011;56056;48.990;12.146;2023-02-11T07:56:49;374.53;;;153.93;;
68995;SDS011;56056;48.990;12.146;2023-02-11T07:59:14;29.87;;;16.37;;
68995;SDS011;56056;48.990;12.146;2023-02-11T08:01:40;11.43;;;10.23;;
68995;SDS011;56056;48.990;12.146;2023-02-11T08:04:06;18.80;;;14.33;;
68995;SDS011;56056;48.990;12.146;2023-02-11T08:06:33;16.30;;;14.97;;
68995;SDS011;56056;48.990;12.146;2023-02-11T08:09:02;15.00;;;13.73;;
68995;SDS011;56056;48.990;12.146;2023-02-11T08:11:30;76.07;;;61.13;;
68995;SDS011;56056;48.990;12.146;2023-02-11T08:13:56;21.83;;;17.17;;
68995;SDS011;56056;48.990;12.146;2023-02-11T08:16:22;22.17;;;19.80;;
68995;SDS011;56056;48.990;12.146;2023-02-11T08:18:49;23.77;;;21.13;;
68995;SDS011;56056;48.990;12.146;2023-02-11T08:21:16;16.67;;;14.63;;
68995;SDS011;56056;48.990;12.146;2023-02-11T08:23:42;15.93;;;14.60;;
68995;SDS011;56056;48.990;12.146;2023-02-11T08:26:08;35.50;;;29.40;;
68995;SDS011;56056;48.990;12.146;2023-02-11T08:28:37;16.17;;;14.67;;
68995;SDS011;56056;48.990;12.146;2023-02-11T08:31:04;26.33;;;12.07;;
68995;SDS011;56056;48.990;12.146;2023-02-11T08:33:30;22.90;;;16.67;;
68995;SDS011;56056;48.990;12.146;2023-02-11T08:35:56;13.27;;;10.33;;
68995;SDS011;56056;48.990;12.146;2023-02-11T08:38:21;19.45;;;14.95;;
68995;SDS011;56056;48.990;12.146;2023-02-11T08:40:47;15.55;;;9.65;;
68995;SDS011;56056;48.990;12.146;2023-02-11T08:43:13;58.38;;;18.27;;
68995;SDS011;56056;48.990;12.146;2023-02-11T08:45:40;12.60;;;10.32;;
68995;SDS011;56056;48.990;12.146;2023-02-11T08:48:06;38.90;;;28.17;;
68995;SDS011;56056;48.990;12.146;2023-02-11T08:50:32;42.85;;;21.70;;
68995;SDS011;56056;48.990;12.146;2023-02-11T08:52:58;14.88;;;11.13;;
68995;SDS011;56056;48.990;12.146;2023-02-11T08:55:23;29.95;;;18.08;;
68995;SDS011;56056;48.990;12.146;2023-02-11T08:57:49;21.92;;;15.40;;
68995;SDS011;56056;48.990;12.146;2023-02-11T09:00:15;41.42;;;20.73;;
68995;SDS011;56056;48.990;12.146;2023-02-11T09:02:44;27.00;;;20.15;;
68995;SDS011;56056;48.990;12.146;2023-02-11T09:05:09;30.08;;;25.42;;
68995;SDS011;56056;48.990;12.146;2023-02-11T09:07:35;29.95;;;20.60;;
68995;SDS011;56056;48.990;12.146;2023-02-11T09:10:00;21.67;;;15.00;;
68995;SDS011;56056;48.990;12.146;2023-02-11T09:12:26;969.13;;;191.30;;
68995;SDS011;56056;48.990;12.146;2023-02-11T09:14:52;17.83;;;15.38;;
68995;SDS011;56056;48.990;12.146;2023-02-11T09:17:17;79.65;;;26.10;;
68995;SDS011;56056;48.990;12.146;2023-02-11T09:19:44;47.28;;;23.48;;
68995;SDS011;56056;48.990;12.146;2023-02-11T09:22:10;106.35;;;43.20;;
68995;SDS011;56056;48.990;12.146;2023-02-11T09:24:36;399.08;;;96.88;;
68995;SDS011;56056;48.990;12.146;2023-02-11T09:27:01;22.20;;;19.85;;
68995;SDS011;56056;48.990;12.146;2023-02-11T09:29:27;819.97;;;239.00;;
68995;SDS011;56056;48.990;12.146;2023-02-11T09:31:53;24.63;;;18.65;;
68995;SDS011;56056;48.990;12.146;2023-02-11T09:34:18;34.17;;;24.05;;
68995;SDS011;56056;48.990;12.146;2023-02-11T09:36:45;15.20;;;12.95;;
68995;SDS011;56056;48.990;12.146;2023-02-11T09:39:12;42.58;;;22.45;;
68995;SDS011;56056;48.990;12.146;2023-02-11T09:44:31;54.77;;;20.37;;
68995;SDS011;56056;48.990;12.146;2023-02-11T09:46:58;26.77;;;13.70;;
68995;SDS011;56056;48.990;12.146;2023-02-11T09:49:29;93.82;;;22.50;;
68995;SDS011;56056;48.990;12.146;2023-02-11T09:52:00;73.50;;;37.95;;
68995;SDS011;56056;48.990;12.146;2023-02-11T09:54:30;150.20;;;51.22;;
68995;SDS011;56056;48.990;12.146;2023-02-11T09:56:59;923.03;;;194.18;;
68995;SDS011;56056;48.990;12.146;2023-02-11T09:59:25;28.55;;;15.60;;
68995;SDS011;56056;48.990;12.146;2023-02-11T10:01:52;32.57;;;16.27;;
68995;SDS011;56056;48.990;12.146;2023-02-11T10:04:23;14.10;;;12.80;;
68995;SDS011;56056;48.990;12.146;2023-02-11T10:06:58;159.93;;;56.15;;
68995;SDS011;56056;48.990;12.146;2023-02-11T10:09:36;41.10;;;20.02;;
68995;SDS011;56056;48.990;12.146;2023-02-11T10:12:19;32.03;;;15.68;;
68995;SDS011;56056;48.990;12.146;2023-02-11T10:15:04;90.60;;;54.97;;
68995;SDS011;56056;48.990;12.146;2023-02-11T10:17:35;51.90;;;27.77;;
68995;SDS011;56056;48.990;12.146;2023-02-11T10:20:07;24.55;;;15.80;;
68995;SDS011;56056;48.990;12.146;2023-02-11T10:22:44;43.00;;;23.70;;
68995;SDS011;56056;48.990;12.146;2023-02-11T10:25:16;24.13;;;15.02;;
68995;SDS011;56056;48.990;12.146;2023-02-11T10:27:44;38.67;;;24.30;;
68995;SDS011;56056;48.990;12.146;2023-02-11T10:30:15;22.73;;;13.95;;
68995;SDS011;56056;48.990;12.146;2023-02-11T10:32:44;39.05;;;18.67;;
68995;SDS011;56056;48.990;12.146;2023-02-11T10:35:13;72.47;;;32.92;;
68995;SDS011;56056;48.990;12.146;2023-02-11T10:37:41;33.05;;;16.38;;
68995;SDS011;56056;48.990;12.146;2023-02-11T10:40:11;48.45;;;27.30;;
68995;SDS011;56056;48.990;12.146;2023-02-11T10:42:39;38.38;;;17.23;;
68995;SDS011;56056;48.990;12.146;2023-02-11T10:45:06;18.40;;;10.15;;
68995;SDS011;56056;48.990;12.146;2023-02-11T10:47:39;26.63;;;14.48;;
68995;SDS011;56056;48.990;12.146;2023-02-11T10:50:17;42.97;;;16.58;;
68995;SDS011;56056;48.990;12.146;2023-02-11T10:52:45;20.17;;;14.48;;
68995;SDS011;56056;48.990;12.146;2023-02-11T10:55:14;49.03;;;23.00;;
68995;SDS011;56056;48.990;12.146;2023-02-11T10:57:40;79.93;;;31.60;;
68995;SDS011;56056;48.990;12.146;2023-02-11T11:00:22;45.47;;;23.40;;
68995;SDS011;56056;48.990;12.146;2023-02-11T11:02:54;39.95;;;30.58;;
68995;SDS011;56056;48.990;12.146;2023-02-11T11:05:22;33.25;;;15.80;;
68995;SDS011;56056;48.990;12.146;2023-02-11T11:07:54;27.73;;;16.55;;
68995;SDS011;56056;48.990;12.146;2023-02-11T11:10:25;41.65;;;18.05;;
68995;SDS011;56056;48.990;12.146;2023-02-11T11:12:54;38.72;;;21.65;;
68995;SDS011;56056;48.990;12.146;2023-02-11T11:15:21;40.03;;;23.33;;
68995;SDS011;56056;48.990;12.146;2023-02-11T11:17:47;33.42;;;21.38;;
68995;SDS011;56056;48.990;12.146;2023-02-11T11:20:21;37.58;;;19.48;;
68995;SDS011;56056;48.990;12.146;2023-02-11T11:22:48;41.45;;;17.65;;
68995;SDS011;56056;48.990;12.146;2023-02-11T11:25:24;28.98;;;16.55;;
68995;SDS011;56056;48.990;12.146;2023-02-11T11:27:51;44.83;;;25.27;;
68995;SDS011;56056;48.990;12.146;2023-02-11T11:30:19;41.15;;;18.85;;
68995;SDS011;56056;48.990;12.146;2023-02-11T11:32:45;40.47;;;20.80;;
68995;SDS011;56056;48.990;12.146;2023-02-11T11:35:19;33.50;;;18.90;;
68995;SDS011;56056;48.990;12.146;2023-02-11T11:37:50;49.58;;;25.73;;
68995;SDS011;56056;48.990;12.146;2023-02-11T11:40:21;23.17;;;14.60;;
68995;SDS011;56056;48.990;12.146;2023-02-11T11:43:00;52.80;;;26.63;;
68995;SDS011;56056;48.990;12.146;2023-02-11T11:45:28;33.50;;;21.27;;
68995;SDS011;56056;48.990;12.146;2023-02-11T11:47:54;32.25;;;24.05;;
68995;SDS011;56056;48.990;12.146;2023-02-11T11:50:24;33.28;;;20.02;;
68995;SDS011;56056;48.990;12.146;2023-02-11T11:52:53;33.47;;;18.77;;
68995;SDS011;56056;48.990;12.146;2023-02-11T11:55:26;32.33;;;16.55;;
68995;SDS011;56056;48.990;12.146;2023-02-11T11:57:54;20.65;;;14.18;;
68995;SDS011;56056;48.990;12.146;2023-02-11T12:00:21;25.58;;;15.63;;
68995;SDS011;56056;48.990;12.146;2023-02-11T12:02:58;23.05;;;13.80;;
68995;SDS011;56056;48.990;12.146;2023-02-11T12:05:44;34.35;;;26.13;;
68995;SDS011;56056;48.990;12.146;2023-02-11T12:08:15;34.50;;;17.70;;
68995;SDS011;56056;48.990;12.146;2023-02-11T12:10:55;35.50;;;23.40;;
68995;SDS011;56056;48.990;12.146;2023-02-11T12:16:23;31.50;;;17.33;;
68995;SDS011;56056;48.990;12.146;2023-02-11T12:19:06;43.58;;;25.00;;
68995;SDS011;56056;48.990;12.146;2023-02-11T12:21:48;36.35;;;25.83;;
68995;SDS011;56056;48.990;12.146;2023-02-11T12:24:23;40.05;;;26.90;;
68995;SDS011;56056;48.990;12.146;2023-02-11T12:26:57;37.58;;;20.15;;
68995;SDS011;56056;48.990;12.146;2023-02-11T12:29:28;38.83;;;29.23;;
68995;SDS011;56056;48.990;12.146;2023-02-11T12:32:01;38.92;;;21.88;;
68995;SDS011;56056;48.990;12.146;2023-02-11T12:34:39;28.00;;;24.35;;
68995;SDS011;56056;48.990;12.146;2023-02-11T12:37:21;23.85;;;20.42;;
68995;SDS011;56056;48.990;12.146;2023-02-11T12:39:55;32.33;;;24.25;;
68995;SDS011;56056;48.990;12.146;2023-02-11T12:42:34;24.00;;;18.25;;
68995;SDS011;56056;48.990;12.146;2023-02-11T12:45:51;24.83;;;22.10;;
68995;SDS011;56056;48.990;12.146;2023-02-11T12:49:08;27.23;;;22.75;;
68995;SDS011;56056;48.990;12.146;2023-02-11T12:51:56;22.05;;;19.27;;
68995;SDS011;56056;48.990;12.146;2023-02-11T12:54:29;20.23;;;17.85;;
68995;SDS011;56056;48.990;12.146;2023-02-11T12:56:58;35.05;;;20.60;;
68995;SDS011;56056;48.990;12.146;2023-02-11T12:59:37;24.33;;;16.35;;
68995;SDS011;56056;48.990;12.146;2023-02-11T13:02:11;22.33;;;19.15;;
68995;SDS011;56056;48.990;12.146;2023-02-11T13:04:42;25.98;;;21.30;;
68995;SDS011;56056;48.990;12.146;2023-02-11T13:07:11;23.33;;;20.88;;
68995;SDS011;56056;48.990;12.146;2023-02-11T13:09:41;25.95;;;19.08;;
68995;SDS011;56056;48.990;12.146;2023-02-11T13:12:11;25.35;;;17.25;;
68995;SDS011;56056;48.990;12.146;2023-02-11T13:14:58;22.50;;;18.92;;
68995;SDS011;56056;48.990;12.146;2023-02-11T13:17:28;28.08;;;18.45;;
68995;SDS011;56056;48.990;12.146;2023-02-11T13:19:58;23.90;;;17.48;;
68995;SDS011;56056;48.990;12.146;2023-02-11T13:22:27;20.95;;;16.92;;
68995;SDS011;56056;48.990;12.146;2023-02-11T13:24:56;28.48;;;21.02;;
68995;SDS011;56056;48.990;12.146;2023-02-11T13:27:28;35.95;;;28.85;;
68995;SDS011;56056;48.990;12.146;2023-02-11T13:30:12;26.58;;;20.58;;
68995;SDS011;56056;48.990;12.146;2023-02-11T13:35:44;24.60;;;18.13;;
68995;SDS011;56056;48.990;12.146;2023-02-11T13:38:16;31.23;;;19.55;;
68995;SDS011;56056;48.990;12.146;2023-02-11T13:40:43;37.53;;;19.77;;
68995;SDS011;56056;48.990;12.146;2023-02-11T13:43:19;25.42;;;16.33;;
68995;SDS011;56056;48.990;12.146;2023-02-11T13:45:47;22.08;;;18.00;;
68995;SDS011;56056;48.990;12.146;2023-02-11T13:48:14;23.77;;;18.58;;
68995;SDS011;56056;48.990;12.146;2023-02-11T13:50:45;32.03;;;18.75;;
68995;SDS011;56056;48.990;12.146;2023-02-11T13:53:12;80.63;;;42.25;;
68995;SDS011;56056;48.990;12.146;2023-02-11T13:55:38;37.88;;;26.58;;
68995;SDS011;56056;48.990;12.146;2023-02-11T14:01:01;32.30;;;24.90;;
68995;SDS011;56056;48.990;12.146;2023-02-11T14:03:31;22.00;;;17.15;;
68995;SDS011;56056;48.990;12.146;2023-02-11T14:06:20;28.48;;;16.67;;
68995;SDS011;56056;48.990;12.146;2023-02-11T14:14:58;29.23;;;24.60;;
68995;SDS011;56056;48.990;12.146;2023-02-11T14:17:40;24.35;;;17.58;;
68995;SDS011;56056;48.990;12.146;2023-02-11T14:22:57;21.05;;;18.75;;
68995;SDS011;56056;48.990;12.146;2023-02-11T14:25:23;26.25;;;21.58;;
68995;SDS011;56056;48.990;12.146;2023-02-11T14:27:51;28.40;;;15.65;;
68995;SDS011;56056;48.990;12.146;2023-02-11T14:30:32;23.88;;;15.38;;
68995;SDS011;56056;48.990;12.146;2023-02-11T14:33:11;28.98;;;18.20;;
68995;SDS011;56056;48.990;12.146;2023-02-11T14:35:50;38.85;;;26.77;;
68995;SDS011;56056;48.990;12.146;2023-02-11T14:38:25;23.20;;;18.58;;